Time;durP1;ratioP1;P1;durP2;ratioP2;P2;SDS_P1;SDS_P2;PMS_P1;PMS_P2;Temp;Humidity;BMP_temperature;BMP_pressure;BME280_temperature;BME280_humidity;BME280_pressure;Samples;Min_cycle;Max_cycle;Signal;HPM_P1;HPM_P2
2023/04/07 00:02:04;;;;;;;1.95;1.05;;;19.80;51.20;;;;;;4917417;29;20053;-62
2023/04/07 00:04:30;;;;;;;2.17;1.20;;;19.70;51.10;;;;;;4918182;29;20055;-62
2023/04/07 00:06:55;;;;;;;3.40;1.17;;;19.80;51.20;;;;;;4935205;29;20048;-62
2023/04/07 00:09:21;;;;;;;2.28;1.10;;;19.80;51.20;;;;;;4935167;29;20488;-62
2023/04/07 00:11:47;;;;;;;1.88;1.00;;;19.70;51.10;;;;;;4918313;29;20471;-62
2023/04/07 00:14:13;;;;;;;2.28;1.10;;;19.70;51.10;;;;;;4935331;29;20055;-61
2023/04/07 00:16:39;;;;;;;3.65;1.20;;;19.70;51.10;;;;;;4934887;29;20047;-62
2023/04/07 00:19:05;;;;;;;2.17;1.10;;;19.70;51.10;;;;;;4917696;29;20412;-62
2023/04/07 00:21:33;;;;;;;2.35;1.10;;;19.70;51.10;;;;;;4935455;29;20048;-62
2023/04/07 00:23:58;;;;;;;2.20;1.08;;;19.70;51.10;;;;;;4917565;29;20056;-62
2023/04/07 00:26:30;;;;;;;1.83;1.00;;;19.70;51.10;;;;;;4935155;29;20051;-62
2023/04/07 00:28:56;;;;;;;2.33;1.08;;;19.70;51.20;;;;;;4917568;29;20047;-62
2023/04/07 00:31:21;;;;;;;1.45;0.80;;;19.70;51.10;;;;;;4917950;29;20048;-62
2023/04/07 00:33:48;;;;;;;1.67;1.00;;;19.70;51.10;;;;;;4934895;29;20047;-62
2023/04/07 00:36:14;;;;;;;2.10;1.15;;;19.70;51.10;;;;;;4934362;29;20051;-62
2023/04/07 00:38:39;;;;;;;1.92;1.20;;;19.70;51.10;;;;;;4935446;29;20395;-62
2023/04/07 00:41:05;;;;;;;2.22;1.00;;;19.70;51.10;;;;;;4934922;29;20048;-62
2023/04/07 00:43:31;;;;;;;1.75;1.00;;;19.70;51.00;;;;;;4934186;29;20044;-62
2023/04/07 00:45:56;;;;;;;1.83;1.02;;;19.60;51.00;;;;;;4933921;29;20126;-62
2023/04/07 00:48:22;;;;;;;2.47;1.08;;;19.60;51.00;;;;;;4886658;29;20043;-62
2023/04/07 00:50:47;;;;;;;2.33;1.15;;;19.60;51.00;;;;;;4937985;29;20217;-62
2023/04/07 00:53:13;;;;;;;1.23;0.82;;;19.60;51.10;;;;;;4938128;29;20052;-62
2023/04/07 00:55:38;;;;;;;1.85;1.10;;;19.60;51.10;;;;;;4938586;29;20047;-62
2023/04/07 00:58:04;;;;;;;1.45;0.90;;;19.60;51.10;;;;;;4937755;29;20044;-62
2023/04/07 01:00:31;;;;;;;2.63;1.00;;;19.60;51.10;;;;;;4921164;29;20051;-62
2023/04/07 01:02:59;;;;;;;1.90;1.05;;;19.60;51.00;;;;;;4921418;29;20044;-63
2023/04/07 01:05:29;;;;;;;1.40;0.80;;;19.60;51.10;;;;;;4921023;29;20503;-62
2023/04/07 01:08:00;;;;;;;1.52;0.82;;;19.60;51.00;;;;;;4921677;29;20044;-62
2023/04/07 01:10:42;;;;;;;2.05;1.10;;;19.60;51.10;;;;;;4938422;29;20048;-62
2023/04/07 01:13:19;;;;;;;1.60;1.00;;;19.60;51.10;;;;;;4920628;29;20035;-62
2023/04/07 01:15:45;;;;;;;2.30;1.00;;;19.50;51.10;;;;;;4920195;29;20071;-62
2023/04/07 01:18:16;;;;;;;2.25;0.90;;;19.50;51.00;;;;;;4905024;29;20121;-62
2023/04/07 01:20:42;;;;;;;2.63;0.93;;;19.50;51.00;;;;;;4921782;29;20066;-62
2023/04/07 01:23:08;;;;;;;1.52;1.00;;;19.50;51.00;;;;;;4937722;29;20165;-62
2023/04/07 01:25:43;;;;;;;2.35;1.13;;;19.50;51.10;;;;;;4920347;29;20130;-62
2023/04/07 01:28:33;;;;;;;2.03;1.00;;;19.50;51.00;;;;;;4920414;29;20223;-62
2023/04/07 01:30:59;;;;;;;1.92;1.02;;;19.50;51.00;;;;;;4937737;29;20052;-63
2023/04/07 01:33:24;;;;;;;1.70;0.80;;;19.50;51.00;;;;;;4920417;29;20095;-62
2023/04/07 01:35:50;;;;;;;3.00;1.15;;;19.50;51.00;;;;;;4920521;29;20043;-62
2023/04/07 01:38:16;;;;;;;1.60;0.90;;;19.50;51.10;;;;;;4904783;29;20495;-62
2023/04/07 01:40:41;;;;;;;1.45;0.80;;;19.50;51.10;;;;;;4919145;29;20047;-62
2023/04/07 01:43:07;;;;;;;1.42;0.93;;;19.50;51.00;;;;;;4904571;29;20102;-62
2023/04/07 01:45:33;;;;;;;1.25;0.85;;;19.50;51.10;;;;;;4937911;29;20044;-62
2023/04/07 01:47:59;;;;;;;1.63;1.00;;;19.50;51.10;;;;;;4919702;29;20423;-62
2023/04/07 01:50:25;;;;;;;1.95;1.10;;;19.50;51.10;;;;;;4937365;29;20103;-62
2023/04/07 01:52:51;;;;;;;1.58;0.90;;;19.40;51.00;;;;;;4937886;29;20047;-62
2023/04/07 01:55:16;;;;;;;1.55;0.77;;;19.50;51.10;;;;;;4914602;29;20413;-62
2023/04/07 01:57:42;;;;;;;3.38;0.90;;;19.50;51.10;;;;;;4920453;29;20458;-62
2023/04/07 02:00:11;;;;;;;1.23;0.73;;;19.40;51.10;;;;;;4936393;29;20469;-62
2023/04/07 02:02:42;;;;;;;1.27;0.77;;;19.40;51.10;;;;;;4937301;29;20041;-62
2023/04/07 02:05:08;;;;;;;2.50;1.00;;;19.40;51.10;;;;;;4912562;29;20052;-62
2023/04/07 02:07:45;;;;;;;1.33;0.90;;;19.40;51.10;;;;;;4904318;29;20062;-62
2023/04/07 02:10:12;;;;;;;1.50;0.90;;;19.40;51.00;;;;;;4912024;29;20530;-62
2023/04/07 02:12:38;;;;;;;1.95;0.90;;;19.40;51.10;;;;;;4920504;29;20399;-62
2023/04/07 02:15:05;;;;;;;1.52;1.00;;;19.40;51.10;;;;;;4919333;29;20479;-62
2023/04/07 02:17:32;;;;;;;1.95;1.00;;;19.40;51.10;;;;;;4904059;29;20543;-62
2023/04/07 02:19:57;;;;;;;1.52;1.00;;;19.40;51.10;;;;;;4904224;29;20558;-63
2023/04/07 02:22:23;;;;;;;1.52;0.90;;;19.40;51.10;;;;;;4888542;29;20051;-62
2023/04/07 02:24:48;;;;;;;2.72;0.95;;;19.40;51.10;;;;;;4936944;29;20099;-62
2023/04/07 02:27:14;;;;;;;2.03;0.93;;;19.40;51.10;;;;;;4936948;29;20138;-62
2023/04/07 02:29:40;;;;;;;1.98;0.90;;;19.40;51.10;;;;;;4936608;29;20388;-62
2023/04/07 02:32:05;;;;;;;1.30;0.88;;;19.30;51.10;;;;;;4936436;29;20044;-62
2023/04/07 02:34:31;;;;;;;1.70;0.77;;;19.30;51.10;;;;;;4904009;29;20094;-62
2023/04/07 02:36:56;;;;;;;1.35;0.82;;;19.30;51.80;;;;;;4936204;29;20098;-62
2023/04/07 02:39:22;;;;;;;1.60;0.80;;;19.30;51.10;;;;;;4936855;29;20051;-62
2023/04/07 02:41:47;;;;;;;1.85;0.90;;;19.40;51.10;;;;;;4919569;29;20048;-62
2023/04/07 02:44:13;;;;;;;1.58;0.90;;;19.30;51.10;;;;;;4936011;29;20086;-62
2023/04/07 02:46:40;;;;;;;1.35;0.80;;;19.30;51.10;;;;;;4936094;29;20082;-62
2023/04/07 02:49:05;;;;;;;1.50;0.73;;;19.30;51.10;;;;;;4936517;29;20126;-62
2023/04/07 02:51:31;;;;;;;1.30;0.80;;;19.30;51.20;;;;;;4918999;29;20504;-62
2023/04/07 02:53:56;;;;;;;1.98;0.90;;;19.30;51.20;;;;;;4918857;29;20110;-62
2023/04/07 02:56:22;;;;;;;1.63;0.80;;;19.30;51.20;;;;;;4936388;29;20102;-61
2023/04/07 02:58:47;;;;;;;1.88;0.80;;;19.40;51.30;;;;;;4935849;29;20074;-61
2023/04/07 03:01:13;;;;;;;1.88;0.90;;;19.40;51.30;;;;;;4935966;29;20514;-61
2023/04/07 03:03:41;;;;;;;1.52;0.80;;;19.40;51.30;;;;;;4935780;29;20499;-61
2023/04/07 03:06:06;;;;;;;1.40;0.73;;;19.40;51.30;;;;;;4919210;29;20487;-61
2023/04/07 03:08:32;;;;;;;1.45;0.90;;;19.40;51.30;;;;;;4936128;29;20066;-61
2023/04/07 03:10:57;;;;;;;1.55;0.82;;;19.40;51.40;;;;;;4935364;29;20567;-61
2023/04/07 03:13:23;;;;;;;1.08;0.80;;;19.50;51.40;;;;;;4935546;29;20039;-61
2023/04/07 03:15:48;;;;;;;1.00;0.73;;;19.50;51.40;;;;;;4936025;29;20165;-62
2023/04/07 03:18:14;;;;;;;1.20;0.73;;;19.50;51.40;;;;;;4935359;29;20114;-61
2023/04/07 03:20:41;;;;;;;1.35;0.82;;;19.50;51.40;;;;;;4935913;29;20419;-61
2023/04/07 03:23:07;;;;;;;1.27;0.70;;;19.50;51.40;;;;;;4918461;29;20399;-61
2023/04/07 03:25:32;;;;;;;1.83;0.85;;;19.50;51.40;;;;;;4935337;29;20488;-61
2023/04/07 03:27:58;;;;;;;1.23;0.88;;;19.50;52.00;;;;;;4935304;29;20499;-61
2023/04/07 03:30:24;;;;;;;1.08;0.70;;;19.60;51.40;;;;;;4935801;29;20086;-61
2023/04/07 03:32:49;;;;;;;2.15;0.70;;;19.60;51.40;;;;;;4935388;29;20083;-61
2023/04/07 03:35:15;;;;;;;1.13;0.73;;;19.60;51.40;;;;;;4935324;29;20071;-61
2023/04/07 03:37:41;;;;;;;1.33;0.80;;;19.60;51.40;;;;;;4935934;29;20475;-62
2023/04/07 03:40:07;;;;;;;1.60;1.00;;;19.60;51.40;;;;;;4935215;29;20098;-62
2023/04/07 03:42:32;;;;;;;2.00;0.77;;;19.60;51.40;;;;;;4935543;29;20054;-61
2023/04/07 03:44:58;;;;;;;1.52;0.80;;;19.60;51.40;;;;;;4935514;29;20040;-62
2023/04/07 03:47:23;;;;;;;1.15;0.80;;;19.70;51.50;;;;;;4935203;29;20051;-61
2023/04/07 03:49:49;;;;;;;1.02;0.60;;;19.70;51.40;;;;;;4935163;29;20055;-61
2023/04/07 03:52:15;;;;;;;1.08;0.73;;;19.70;51.50;;;;;;4918249;29;20062;-61
2023/04/07 03:54:40;;;;;;;1.25;0.60;;;19.70;51.40;;;;;;4935181;29;20052;-61
2023/04/07 03:57:06;;;;;;;1.00;0.77;;;19.70;51.40;;;;;;4935006;29;20072;-61
2023/04/07 03:59:31;;;;;;;1.33;0.70;;;19.70;51.50;;;;;;4918345;29;20039;-61
2023/04/07 04:01:57;;;;;;;0.80;0.60;;;19.70;51.40;;;;;;4949271;29;20067;-61
2023/04/07 04:04:23;;;;;;;1.00;0.60;;;19.70;51.40;;;;;;4936641;29;20442;-61
2023/04/07 04:06:49;;;;;;;1.33;0.70;;;19.70;51.50;;;;;;4934747;29;20166;-61
2023/04/07 04:09:15;;;;;;;1.23;0.70;;;19.70;51.40;;;;;;4917783;29;20403;-61
2023/04/07 04:11:41;;;;;;;1.20;0.80;;;19.70;51.50;;;;;;4935038;29;20484;-61
2023/04/07 04:14:06;;;;;;;0.93;0.68;;;19.80;51.50;;;;;;4934769;29;20403;-61
2023/04/07 04:16:34;;;;;;;0.75;0.50;;;19.80;51.50;;;;;;4935221;29;20503;-62
2023/04/07 04:19:00;;;;;;;1.10;0.80;;;19.80;51.50;;;;;;4935156;29;20143;-61
2023/04/07 04:21:26;;;;;;;1.15;0.70;;;19.80;51.50;;;;;;4935085;29;20079;-61
2023/04/07 04:23:52;;;;;;;1.42;0.80;;;19.80;51.50;;;;;;4903063;29;20065;-61
2023/04/07 04:26:17;;;;;;;1.45;0.75;;;19.80;51.50;;;;;;4939015;29;20069;-61
2023/04/07 04:28:43;;;;;;;0.93;0.60;;;19.80;51.60;;;;;;4938812;29;20040;-61
2023/04/07 04:31:08;;;;;;;1.20;0.70;;;19.80;51.50;;;;;;4938334;29;20047;-61
2023/04/07 04:33:34;;;;;;;0.85;0.57;;;19.80;51.60;;;;;;4939072;29;20040;-61
2023/04/07 04:36:00;;;;;;;0.95;0.68;;;19.80;51.50;;;;;;4938541;29;20506;-61
2023/04/07 04:38:25;;;;;;;1.63;0.70;;;19.80;51.50;;;;;;4939021;29;20051;-61
2023/04/07 04:40:51;;;;;;;0.70;0.60;;;19.80;51.50;;;;;;4939195;29;20364;-61
2023/04/07 04:43:16;;;;;;;1.00;0.68;;;19.90;51.60;;;;;;4920922;29;20456;-61
2023/04/07 04:45:42;;;;;;;1.90;0.70;;;19.90;51.60;;;;;;4921525;29;20131;-62
2023/04/07 04:48:08;;;;;;;1.27;0.70;;;19.90;51.60;;;;;;4938380;29;20126;-61
2023/04/07 04:50:34;;;;;;;1.25;0.60;;;19.90;51.60;;;;;;4938148;29;20127;-61
2023/04/07 04:52:59;;;;;;;1.38;0.70;;;19.90;51.60;;;;;;4938395;29;20464;-61
2023/04/07 04:55:25;;;;;;;1.30;0.70;;;19.90;51.60;;;;;;4938787;29;20063;-61
2023/04/07 04:57:50;;;;;;;1.02;0.57;;;19.90;51.60;;;;;;4938155;29;20050;-61
2023/04/07 05:00:16;;;;;;;0.93;0.60;;;19.90;51.60;;;;;;4921250;29;20396;-61
2023/04/07 05:02:42;;;;;;;2.38;0.75;;;19.90;51.60;;;;;;4938664;29;20040;-62
2023/04/07 05:05:08;;;;;;;1.15;0.60;;;19.90;51.60;;;;;;4937784;29;20070;-62
2023/04/07 05:07:33;;;;;;;1.85;0.60;;;19.90;51.60;;;;;;4938146;29;20059;-61
2023/04/07 05:10:00;;;;;;;0.90;0.60;;;19.90;51.60;;;;;;4921207;29;20055;-62
2023/04/07 05:12:26;;;;;;;1.25;0.85;;;20.00;51.60;;;;;;4920921;29;20055;-61
2023/04/07 05:14:51;;;;;;;0.93;0.60;;;19.90;51.50;;;;;;4938191;29;20048;-62
2023/04/07 05:17:17;;;;;;;1.30;0.60;;;19.90;51.60;;;;;;4956124;29;20132;-61
2023/04/07 05:19:42;;;;;;;1.50;0.80;;;19.90;51.60;;;;;;4957154;29;20086;-61
2023/04/07 05:22:08;;;;;;;1.05;0.70;;;19.90;51.60;;;;;;4939599;29;20043;-61
2023/04/07 05:24:34;;;;;;;0.75;0.57;;;19.90;51.60;;;;;;4956727;29;20047;-62
2023/04/07 05:27:00;;;;;;;1.35;0.70;;;20.00;51.60;;;;;;4956396;29;20499;-61
2023/04/07 05:29:26;;;;;;;1.55;0.65;;;20.00;51.60;;;;;;4957438;29;20039;-61
2023/04/07 05:31:51;;;;;;;1.20;0.60;;;20.00;52.30;;;;;;4956494;29;20130;-61
2023/04/07 05:34:17;;;;;;;1.27;0.50;;;20.00;51.60;;;;;;4956690;28;20051;-61
2023/04/07 05:36:42;;;;;;;0.88;0.65;;;20.00;51.60;;;;;;4956768;29;20051;-61
2023/04/07 05:39:08;;;;;;;0.90;0.70;;;20.00;51.60;;;;;;4956219;29;20075;-61
2023/04/07 05:41:33;;;;;;;1.17;0.70;;;20.00;51.60;;;;;;4956700;29;20039;-61
2023/04/07 05:43:59;;;;;;;1.10;0.60;;;20.00;51.60;;;;;;4956087;29;20055;-62
2023/04/07 05:46:24;;;;;;;0.98;0.70;;;20.00;51.60;;;;;;4956037;29;20087;-61
2023/04/07 05:48:50;;;;;;;1.40;0.70;;;20.00;51.60;;;;;;4956679;29;20039;-61
2023/04/07 05:51:16;;;;;;;1.42;0.80;;;20.00;51.60;;;;;;4956034;29;20114;-62
2023/04/07 05:53:41;;;;;;;0.90;0.70;;;20.00;51.60;;;;;;4956171;29;20054;-61
2023/04/07 05:56:07;;;;;;;1.05;0.65;;;20.00;51.60;;;;;;4938581;29;20043;-61
2023/04/07 05:58:32;;;;;;;1.38;0.70;;;20.00;51.60;;;;;;4956976;29;20097;-61
2023/04/07 06:00:58;;;;;;;1.05;0.70;;;20.00;51.60;;;;;;4955540;29;20047;-61
2023/04/07 06:03:23;;;;;;;1.48;0.70;;;20.00;51.60;;;;;;4956308;29;20077;-61
2023/04/07 06:05:49;;;;;;;1.10;0.70;;;20.00;51.60;;;;;;4956314;29;20434;-61
2023/04/07 06:08:15;;;;;;;1.08;0.60;;;20.00;51.60;;;;;;4955759;29;20407;-61
2023/04/07 06:10:40;;;;;;;1.55;0.70;;;20.10;51.60;;;;;;4956069;29;20043;-61
2023/04/07 06:13:06;;;;;;;1.02;0.70;;;20.10;51.60;;;;;;4955972;29;20495;-61
2023/04/07 06:15:32;;;;;;;2.10;0.68;;;20.10;51.60;;;;;;4955762;29;20372;-62
2023/04/07 06:17:58;;;;;;;1.10;0.70;;;20.10;51.60;;;;;;4955542;29;20626;-61
2023/04/07 06:20:23;;;;;;;1.10;0.65;;;20.10;51.60;;;;;;4956296;29;20138;-61
2023/04/07 06:22:49;;;;;;;1.10;0.70;;;20.10;51.60;;;;;;4955873;29;20126;-61
2023/04/07 06:25:14;;;;;;;0.90;0.70;;;20.10;51.60;;;;;;4938642;29;20047;-61
2023/04/07 06:27:40;;;;;;;0.77;0.50;;;20.10;51.60;;;;;;4955400;29;20046;-61
2023/04/07 06:30:07;;;;;;;1.08;0.60;;;20.10;51.60;;;;;;4955886;29;20134;-63
2023/04/07 06:32:32;;;;;;;1.33;0.77;;;20.10;51.60;;;;;;4955659;29;20483;-63
2023/04/07 06:34:58;;;;;;;2.47;0.73;;;20.10;51.60;;;;;;4955494;29;20058;-63
2023/04/07 06:37:24;;;;;;;6.20;0.70;;;20.10;51.70;;;;;;4955675;29;20043;-62
2023/04/07 06:39:50;;;;;;;2.63;0.80;;;20.10;51.70;;;;;;4955875;29;20055;-62
2023/04/07 06:42:16;;;;;;;2.30;0.52;;;20.10;51.70;;;;;;4946751;29;20036;-62
2023/04/07 06:44:41;;;;;;;1.65;0.70;;;20.10;51.60;;;;;;4936627;29;20103;-62
2023/04/07 06:47:07;;;;;;;2.55;0.80;;;20.20;51.70;;;;;;4948274;28;20050;-62
2023/04/07 06:49:33;;;;;;;1.85;0.80;;;20.20;51.70;;;;;;4955368;29;20047;-62
2023/04/07 06:51:59;;;;;;;2.88;0.70;;;20.20;51.70;;;;;;4954656;29;20059;-63
2023/04/07 06:54:24;;;;;;;1.85;0.90;;;20.20;51.80;;;;;;4955535;29;20051;-62
2023/04/07 06:56:50;;;;;;;5.07;0.90;;;20.20;51.80;;;;;;4954535;29;20039;-64
2023/04/07 06:59:16;;;;;;;2.45;0.80;;;20.20;51.90;;;;;;4954720;29;20046;-63
2023/04/07 07:01:42;;;;;;;5.25;0.98;;;20.20;52.00;;;;;;4937806;29;20077;-63
2023/04/07 07:04:08;;;;;;;3.70;0.93;;;20.20;52.30;;;;;;4954534;29;20491;-65
2023/04/07 07:06:33;;;;;;;1.80;0.73;;;20.20;52.50;;;;;;4955075;29;20046;-64
2023/04/07 07:08:59;;;;;;;1.95;0.73;;;20.30;52.70;;;;;;4937869;29;20101;-64
2023/04/07 07:11:26;;;;;;;3.45;0.90;;;20.30;52.80;;;;;;4937544;29;20043;-64
2023/04/07 07:13:51;;;;;;;3.92;1.00;;;20.30;53.00;;;;;;4955106;29;20055;-65
2023/04/07 07:16:17;;;;;;;2.35;0.90;;;20.30;53.00;;;;;;4937372;29;20043;-65
2023/04/07 07:18:42;;;;;;;3.25;1.08;;;20.30;53.10;;;;;;4937271;29;20122;-65
2023/04/07 07:21:08;;;;;;;2.20;0.93;;;20.30;53.20;;;;;;4954535;29;20135;-64
2023/04/07 07:23:33;;;;;;;4.32;0.80;;;20.30;53.20;;;;;;4937874;29;20133;-62
2023/04/07 07:25:59;;;;;;;2.58;0.90;;;20.30;53.30;;;;;;4936378;29;20061;-63
2023/04/07 07:28:25;;;;;;;3.10;0.75;;;20.30;53.30;;;;;;4937882;29;20102;-61
2023/04/07 07:30:50;;;;;;;1.42;0.77;;;20.40;53.40;;;;;;4954492;29;20047;-62
2023/04/07 07:33:16;;;;;;;3.15;0.98;;;20.40;53.30;;;;;;4937069;29;20059;-61
2023/04/07 07:35:41;;;;;;;2.05;0.80;;;20.40;53.00;;;;;;4955135;29;20047;-61
2023/04/07 07:38:07;;;;;;;2.08;0.75;;;20.40;53.00;;;;;;4936760;29;20049;-63
2023/04/07 07:40:32;;;;;;;2.60;0.90;;;20.40;52.90;;;;;;4954486;29;20075;-64
2023/04/07 07:42:59;;;;;;;3.40;0.80;;;20.40;53.10;;;;;;4937268;29;20491;-63
2023/04/07 07:45:25;;;;;;;2.45;0.82;;;20.40;53.20;;;;;;4937099;29;20061;-62
2023/04/07 07:47:50;;;;;;;3.33;0.80;;;20.40;53.20;;;;;;4953974;29;20127;-63
2023/04/07 07:50:16;;;;;;;5.28;1.10;;;20.40;53.10;;;;;;4953636;29;20066;-63
2023/04/07 07:52:42;;;;;;;4.82;0.90;;;20.40;53.20;;;;;;4953326;29;20046;-63
2023/04/07 07:55:08;;;;;;;2.67;0.88;;;20.30;53.10;;;;;;4954276;29;20558;-63
2023/04/07 07:57:33;;;;;;;5.70;1.23;;;20.30;53.10;;;;;;4955003;29;20050;-62
2023/04/07 07:59:59;;;;;;;4.80;0.80;;;20.40;53.20;;;;;;4936765;29;20047;-63
2023/04/07 08:02:29;;;;;;;2.08;0.88;;;20.30;53.10;;;;;;4937228;29;20126;-63
2023/04/07 08:04:58;;;;;;;3.78;0.82;;;20.30;53.10;;;;;;4954352;29;20530;-63
2023/04/07 08:07:24;;;;;;;2.05;0.82;;;20.30;53.00;;;;;;4937072;29;20043;-63
2023/04/07 08:09:49;;;;;;;2.15;0.80;;;20.30;53.20;;;;;;4954435;29;20063;-63
2023/04/07 08:12:15;;;;;;;4.32;0.98;;;20.30;53.00;;;;;;4954587;29;20471;-63
2023/04/07 08:14:41;;;;;;;4.22;1.15;;;20.30;53.20;;;;;;4937219;29;20047;-63
2023/04/07 08:17:06;;;;;;;8.35;1.85;;;20.30;53.00;;;;;;4954241;29;20055;-62
2023/04/07 08:19:32;;;;;;;3.33;0.90;;;20.30;53.00;;;;;;4954852;29;20043;-63
2023/04/07 08:21:57;;;;;;;3.63;1.60;;;20.30;53.10;;;;;;4953636;29;20044;-62
2023/04/07 08:24:23;;;;;;;2.72;1.02;;;20.30;53.00;;;;;;4953942;29;20130;-62
2023/04/07 08:26:48;;;;;;;2.13;0.90;;;20.30;53.00;;;;;;4954146;29;20082;-62
2023/04/07 08:29:14;;;;;;;5.18;1.13;;;20.30;53.10;;;;;;4953184;29;20051;-62
2023/04/07 08:31:40;;;;;;;3.03;1.20;;;20.30;53.10;;;;;;4954532;29;20106;-62
2023/04/07 08:34:05;;;;;;;2.55;0.98;;;20.30;53.10;;;;;;4953856;29;20450;-63
2023/04/07 08:36:31;;;;;;;4.20;1.35;;;20.20;53.10;;;;;;4937052;29;20083;-62
2023/04/07 08:38:58;;;;;;;3.60;1.00;;;20.30;53.20;;;;;;4953828;29;20106;-63
2023/04/07 08:41:35;;;;;;;3.00;1.20;;;20.20;53.10;;;;;;4953873;29;20102;-62
2023/04/07 08:44:01;;;;;;;3.53;1.17;;;20.30;53.20;;;;;;4937416;29;20047;-63
2023/04/07 08:46:27;;;;;;;2.17;0.90;;;20.20;53.10;;;;;;4937422;29;20103;-63
2023/04/07 08:48:52;;;;;;;1.85;1.00;;;20.20;53.20;;;;;;4936725;29;20047;-63
2023/04/07 08:51:31;;;;;;;2.00;1.15;;;20.20;53.20;;;;;;4920637;29;20134;-63
2023/04/07 08:54:11;;;;;;;3.65;1.20;;;20.20;53.20;;;;;;4938503;29;20051;-63
2023/04/07 08:56:39;;;;;;;2.60;0.95;;;20.20;53.20;;;;;;4954002;29;20118;-64
2023/04/07 08:59:06;;;;;;;2.15;0.90;;;20.20;53.30;;;;;;4953770;29;20134;-63
2023/04/07 09:01:31;;;;;;;1.75;0.90;;;20.20;53.30;;;;;;4936900;29;20127;-63
2023/04/07 09:03:57;;;;;;;1.58;1.20;;;20.20;53.40;;;;;;4936181;29;20126;-63
2023/04/07 09:06:23;;;;;;;6.38;2.03;;;20.20;53.40;;;;;;4953889;29;20521;-64
2023/04/07 09:08:49;;;;;;;4.18;1.08;;;20.20;53.50;;;;;;4954295;29;20542;-63
2023/04/07 09:11:14;;;;;;;6.28;1.85;;;20.20;53.50;;;;;;4938690;29;20134;-63
2023/04/07 09:13:40;;;;;;;3.75;1.17;;;20.20;53.60;;;;;;4957744;29;20102;-61
2023/04/07 09:16:06;;;;;;;2.28;1.08;;;20.20;53.60;;;;;;4957237;29;20043;-64
2023/04/07 09:18:31;;;;;;;11.57;1.55;;;20.20;53.60;;;;;;4940495;29;20036;-65
2023/04/07 09:21:06;;;;;;;5.22;1.40;;;20.20;53.60;;;;;;4939869;29;20047;-63
2023/04/07 09:23:39;;;;;;;6.13;1.10;;;20.20;53.70;;;;;;4938967;29;20047;-59
2023/04/07 09:26:18;;;;;;;5.22;1.33;;;20.20;53.60;;;;;;4956409;29;20043;-66
2023/04/07 09:28:44;;;;;;;3.47;1.23;;;20.20;53.60;;;;;;4923049;29;20059;-64
2023/04/07 09:31:10;;;;;;;3.03;1.10;;;20.20;53.60;;;;;;4936483;29;20408;-67
2023/04/07 09:33:35;;;;;;;3.75;1.20;;;20.20;53.60;;;;;;4937791;29;20042;-65
2023/04/07 09:36:07;;;;;;;2.92;0.93;;;20.20;53.60;;;;;;4937715;29;20059;-66
2023/04/07 09:38:37;;;;;;;3.00;0.93;;;20.30;53.50;;;;;;4937439;29;20122;-64
2023/04/07 09:41:09;;;;;;;4.05;0.90;;;20.40;53.50;;;;;;4937218;29;20055;-64
2023/04/07 09:43:40;;;;;;;6.97;1.10;;;20.40;53.40;;;;;;4938009;29;20054;-66
2023/04/07 09:46:16;;;;;;;3.95;1.27;;;20.40;53.40;;;;;;4937298;29;20083;-65
2023/04/07 09:48:43;;;;;;;6.55;2.70;;;20.40;53.40;;;;;;4936361;29;20098;-66
2023/04/07 09:51:15;;;;;;;2.40;1.00;;;20.40;53.40;;;;;;4937162;29;20409;-66
2023/04/07 09:53:49;;;;;;;3.17;1.00;;;20.40;53.40;;;;;;4919909;29;20498;-66
2023/04/07 09:56:21;;;;;;;3.63;1.20;;;20.40;53.50;;;;;;4920627;29;20075;-66
2023/04/07 09:58:47;;;;;;;3.20;1.13;;;20.40;53.50;;;;;;4937162;29;20090;-66
2023/04/07 10:01:13;;;;;;;4.50;1.30;;;20.40;53.50;;;;;;4937104;29;20115;-66
2023/04/07 10:03:39;;;;;;;3.53;1.10;;;20.40;53.50;;;;;;4920290;29;20040;-67
2023/04/07 10:06:08;;;;;;;4.20;1.27;;;20.40;53.50;;;;;;4935958;29;20044;-66
2023/04/07 10:08:35;;;;;;;5.85;1.40;;;20.30;53.40;;;;;;4919571;29;20094;-65
2023/04/07 10:11:02;;;;;;;2.90;1.35;;;20.30;53.40;;;;;;4937380;29;20192;-61
2023/04/07 10:13:28;;;;;;;2.60;1.20;;;20.30;53.50;;;;;;4936907;29;20122;-62
2023/04/07 10:15:54;;;;;;;3.88;1.08;;;20.30;53.70;;;;;;4948266;29;20146;-61
2023/04/07 10:18:20;;;;;;;4.40;1.00;;;20.30;53.70;;;;;;4956211;29;20450;-63
2023/04/07 10:20:47;;;;;;;3.97;1.13;;;20.30;53.90;;;;;;4921732;28;20097;-63
2023/04/07 10:23:17;;;;;;;6.75;1.38;;;20.30;54.00;;;;;;4937676;29;20082;-62
2023/04/07 10:25:44;;;;;;;4.93;1.30;;;20.30;54.20;;;;;;4923094;29;20047;-61
2023/04/07 10:28:11;;;;;;;7.10;1.10;;;20.30;54.30;;;;;;4942909;29;20499;-62
2023/04/07 10:30:37;;;;;;;4.40;1.30;;;20.30;54.40;;;;;;4936059;29;20052;-61
2023/04/07 10:33:03;;;;;;;3.00;1.15;;;20.20;54.40;;;;;;4919165;29;20051;-61
2023/04/07 10:35:49;;;;;;;6.30;0.98;;;20.20;54.50;;;;;;4941000;29;20042;-62
2023/04/07 10:38:16;;;;;;;3.33;1.15;;;20.20;54.50;;;;;;4940969;29;20051;-62
2023/04/07 10:40:42;;;;;;;3.03;0.90;;;20.20;54.60;;;;;;4929254;29;20540;-62
2023/04/07 10:43:11;;;;;;;4.53;1.00;;;20.20;54.60;;;;;;4921940;29;20125;-62
2023/04/07 10:45:48;;;;;;;5.35;1.13;;;20.20;54.60;;;;;;4939201;29;20039;-62
2023/04/07 10:48:17;;;;;;;3.78;1.20;;;20.20;54.60;;;;;;4918601;29;20047;-62
2023/04/07 10:50:44;;;;;;;2.22;0.90;;;20.20;54.60;;;;;;4918928;29;20059;-62
2023/04/07 10:53:11;;;;;;;3.25;0.88;;;20.20;54.60;;;;;;4935264;29;20056;-62
2023/04/07 10:55:43;;;;;;;3.05;1.00;;;20.20;55.30;;;;;;4934022;29;20087;-62
2023/04/07 10:58:13;;;;;;;3.85;0.82;;;20.20;54.70;;;;;;4947973;29;20131;-62
2023/04/07 11:00:38;;;;;;;2.63;1.00;;;20.20;54.70;;;;;;4930066;29;20043;-62
2023/04/07 11:03:13;;;;;;;3.38;0.90;;;20.20;54.70;;;;;;4918154;29;20107;-62
2023/04/07 11:05:39;;;;;;;2.33;0.90;;;20.10;54.70;;;;;;4947775;29;20055;-62
2023/04/07 11:08:06;;;;;;;2.25;0.75;;;20.10;54.70;;;;;;4953848;29;20039;-62
2023/04/07 11:10:35;;;;;;;2.58;1.02;;;20.10;54.70;;;;;;4939665;29;20087;-62
2023/04/07 11:13:05;;;;;;;3.10;1.13;;;20.10;54.80;;;;;;4918498;29;20056;-62
2023/04/07 11:15:31;;;;;;;5.43;0.88;;;20.10;54.90;;;;;;4934927;29;20047;-63
2023/04/07 11:18:13;;;;;;;2.88;1.05;;;20.10;54.80;;;;;;4934067;29;20051;-62
2023/04/07 11:20:46;;;;;;;2.20;1.00;;;20.10;54.80;;;;;;4935318;29;20036;-62
2023/04/07 11:23:12;;;;;;;2.70;0.90;;;20.10;54.90;;;;;;4946744;29;20044;-64
2023/04/07 11:25:38;;;;;;;3.92;1.00;;;20.10;54.90;;;;;;4921526;29;20142;-64
2023/04/07 11:28:03;;;;;;;2.17;1.00;;;20.10;54.90;;;;;;4937475;29;20047;-64
2023/04/07 11:30:29;;;;;;;3.22;1.10;;;20.10;55.00;;;;;;4953918;29;20132;-63
2023/04/07 11:32:55;;;;;;;2.95;1.20;;;20.10;55.10;;;;;;4953842;28;20047;-64
2023/04/07 11:35:21;;;;;;;3.35;0.90;;;20.10;55.00;;;;;;4954169;29;20047;-63
2023/04/07 11:37:47;;;;;;;3.30;1.10;;;20.00;54.80;;;;;;4936517;29;20098;-63
2023/04/07 11:40:15;;;;;;;4.00;1.08;;;20.10;54.80;;;;;;4953540;29;20043;-62
2023/04/07 11:42:41;;;;;;;3.33;1.20;;;20.10;54.60;;;;;;4921562;29;20491;-62
2023/04/07 11:45:17;;;;;;;2.67;1.27;;;20.10;54.60;;;;;;4952487;29;20043;-62
2023/04/07 11:47:43;;;;;;;2.33;1.40;;;20.10;54.70;;;;;;4936620;29;20070;-62
2023/04/07 11:50:09;;;;;;;5.13;1.23;;;20.10;54.70;;;;;;4953383;29;20117;-62
2023/04/07 11:52:41;;;;;;;3.75;1.40;;;20.10;55.20;;;;;;4936070;29;20051;-62
2023/04/07 11:55:15;;;;;;;5.07;1.45;;;20.10;54.40;;;;;;4953366;29;20043;-62
2023/04/07 11:57:40;;;;;;;4.20;1.30;;;20.10;54.30;;;;;;4922046;29;20055;-62
2023/04/07 12:00:07;;;;;;;1.83;1.00;;;20.10;54.20;;;;;;4935667;29;20035;-62
2023/04/07 12:02:33;;;;;;;3.22;1.13;;;20.10;54.10;;;;;;4953814;29;20047;-63
2023/04/07 12:04:59;;;;;;;2.22;1.25;;;20.10;54.00;;;;;;4951009;29;20406;-64
2023/04/07 12:07:24;;;;;;;2.75;1.02;;;20.20;54.00;;;;;;4953485;29;20043;-63
2023/04/07 12:09:50;;;;;;;3.22;1.45;;;20.20;53.90;;;;;;4934819;29;20047;-63
2023/04/07 12:12:24;;;;;;;4.05;0.80;;;20.20;53.80;;;;;;4953001;29;20039;-63
2023/04/07 12:14:50;;;;;;;2.40;1.00;;;20.20;53.60;;;;;;4936746;29;20059;-62
2023/04/07 12:17:25;;;;;;;3.95;1.10;;;20.20;53.60;;;;;;4936382;29;20043;-63
2023/04/07 12:19:51;;;;;;;4.32;1.13;;;20.20;53.60;;;;;;4952170;29;20482;-62
2023/04/07 12:22:17;;;;;;;1.98;1.10;;;20.20;53.50;;;;;;4953072;29;20040;-62
2023/04/07 12:24:43;;;;;;;3.08;1.38;;;20.20;53.30;;;;;;4953432;29;20040;-63
2023/04/07 12:27:09;;;;;;;3.97;1.20;;;20.30;53.40;;;;;;4935666;29;20050;-62
2023/04/07 12:29:36;;;;;;;2.92;1.10;;;20.30;53.30;;;;;;4951939;29;20047;-62
2023/04/07 12:32:04;;;;;;;3.08;1.00;;;20.30;53.20;;;;;;4935980;29;20043;-63
2023/04/07 12:34:30;;;;;;;1.75;0.88;;;20.30;53.10;;;;;;4935797;29;20150;-63
2023/04/07 12:36:55;;;;;;;2.20;1.08;;;20.30;53.00;;;;;;4953470;29;20118;-63
2023/04/07 12:39:21;;;;;;;1.25;0.80;;;20.40;53.10;;;;;;4953811;29;20045;-62
2023/04/07 12:41:48;;;;;;;1.83;0.80;;;20.40;53.00;;;;;;4952254;29;20047;-63
2023/04/07 12:44:15;;;;;;;3.65;1.05;;;20.40;52.90;;;;;;4953565;28;20044;-64
2023/04/07 12:46:41;;;;;;;1.38;0.70;;;20.40;52.80;;;;;;4939051;29;20439;-63